createdAt,value
2018-06-29T00:00:14.325Z,0.00
2018-06-29T00:01:14.299Z,0.00
2018-06-29T00:03:10.253Z,0.00
2018-06-29T00:04:09.265Z,0.00
2018-06-29T00:06:05.212Z,0.00
2018-06-29T00:07:04.704Z,0.00
2018-06-29T00:08:59.668Z,0.00
2018-06-29T00:09:59.190Z,0.00
2018-06-29T00:11:55.168Z,0.00
2018-06-29T00:12:55.094Z,0.00
2018-06-29T00:14:51.089Z,0.00
2018-06-29T00:15:51.568Z,0.00
2018-06-29T00:17:48.032Z,0.00
2018-06-29T00:18:47.027Z,0.00
2018-06-29T00:20:41.509Z,0.00
2018-06-29T00:21:41.486Z,0.00
2018-06-29T00:23:38.438Z,0.00
2018-06-29T00:24:37.425Z,0.00
2018-06-29T00:26:31.870Z,0.00
2018-06-29T00:27:31.882Z,0.00
2018-06-29T00:29:27.840Z,0.00
2018-06-29T00:30:26.343Z,0.00
2018-06-29T00:32:22.260Z,0.00
2018-06-29T00:33:22.257Z,0.00
2018-06-29T00:35:16.721Z,0.00
2018-06-29T00:36:16.704Z,0.00
2018-06-29T00:38:12.683Z,0.00
2018-06-29T00:39:12.656Z,0.00
2018-06-29T00:41:09.120Z,0.00
2018-06-29T00:42:09.146Z,0.00
2018-06-29T00:44:04.556Z,0.00
2018-06-29T00:45:05.076Z,0.00
2018-06-29T00:47:03.118Z,0.00
2018-06-29T00:48:00.520Z,0.00
2018-06-29T00:49:53.973Z,0.00
2018-06-29T00:50:53.992Z,0.00
2018-06-29T00:52:51.475Z,0.00
2018-06-29T00:53:50.451Z,0.00
2018-06-29T00:55:47.409Z,0.00
2018-06-29T00:56:45.916Z,0.00
2018-06-29T00:58:42.367Z,0.00
2018-06-29T00:59:41.855Z,0.00
2018-06-29T01:01:38.325Z,0.00
2018-06-29T01:02:37.775Z,0.00
2018-06-29T01:04:32.256Z,0.00
2018-06-29T01:05:32.228Z,0.00
2018-06-29T01:07:28.691Z,0.00
2018-06-29T01:08:28.181Z,0.00
2018-06-29T01:10:26.130Z,0.00
2018-06-29T01:11:26.146Z,0.00
2018-06-29T01:13:22.129Z,0.00
2018-06-29T01:14:22.611Z,0.00
2018-06-29T01:16:16.552Z,0.00
2018-06-29T01:17:16.546Z,0.00
2018-06-29T01:19:11.042Z,0.00
2018-06-29T01:20:11.021Z,0.00
2018-06-29T01:22:07.004Z,0.00
2018-06-29T01:23:06.946Z,0.00
2018-06-29T01:25:03.429Z,0.00
2018-06-29T01:26:02.892Z,0.00
2018-06-29T01:27:59.376Z,0.00
2018-06-29T01:28:58.856Z,0.00
2018-06-29T01:30:54.819Z,0.00
2018-06-29T01:31:54.811Z,0.00
2018-06-29T01:33:50.261Z,0.00
2018-06-29T01:34:49.242Z,0.00
2018-06-29T01:36:48.212Z,0.00
2018-06-29T01:37:47.704Z,0.00
2018-06-29T01:39:43.196Z,0.00
2018-06-29T01:40:43.187Z,0.00
2018-06-29T01:42:37.634Z,0.00
2018-06-29T01:43:37.632Z,0.00
2018-06-29T01:45:34.109Z,0.00
2018-06-29T01:46:33.597Z,0.00
2018-06-29T01:48:30.045Z,0.00
2018-06-29T01:49:29.569Z,0.00
2018-06-29T01:51:28.006Z,0.00
2018-06-29T01:52:25.504Z,0.00
2018-06-29T01:54:21.977Z,0.00
2018-06-29T01:55:21.465Z,0.00
2018-06-29T01:57:17.440Z,0.00
2018-06-29T01:58:17.408Z,0.00
2018-06-29T02:00:12.380Z,0.00
2018-06-29T02:01:12.377Z,0.00
2018-06-29T02:03:08.852Z,0.00
2018-06-29T02:04:07.828Z,0.00
2018-06-29T02:06:04.773Z,0.00
2018-06-29T02:07:04.293Z,0.00
2018-06-29T02:08:59.764Z,0.00
2018-06-29T02:10:00.745Z,0.00
2018-06-29T02:11:54.217Z,0.00
2018-06-29T02:12:53.147Z,0.00
2018-06-29T02:14:48.107Z,0.00
2018-06-29T02:15:47.639Z,0.00
2018-06-29T02:17:44.496Z,0.00
2018-06-29T02:18:44.565Z,0.00
2018-06-29T02:20:39.548Z,0.00
2018-06-29T02:21:39.538Z,0.00
2018-06-29T02:23:34.001Z,0.00
2018-06-29T02:24:33.981Z,0.00
2018-06-29T02:26:30.947Z,0.00
2018-06-29T02:27:29.966Z,0.00
2018-06-29T02:29:25.878Z,0.00
2018-06-29T02:30:26.446Z,0.00
2018-06-29T02:32:21.859Z,0.00
2018-06-29T02:33:21.837Z,0.00
2018-06-29T02:35:17.812Z,0.00
2018-06-29T02:36:17.788Z,0.00
2018-06-29T02:38:13.782Z,0.00
2018-06-29T02:39:13.730Z,0.00
2018-06-29T02:41:11.192Z,0.00
2018-06-29T02:42:09.692Z,0.00
2018-06-29T02:44:04.197Z,0.00
2018-06-29T02:45:04.170Z,0.00
2018-06-29T02:46:57.621Z,0.00
2018-06-29T02:47:58.551Z,0.00
2018-06-29T02:49:52.086Z,0.00
2018-06-29T02:50:52.066Z,0.00
2018-06-29T02:52:48.541Z,0.00
2018-06-29T02:53:48.021Z,0.00
2018-06-29T02:55:44.485Z,0.00
2018-06-29T02:56:44.488Z,0.00
2018-06-29T02:58:41.457Z,0.00
2018-06-29T02:59:39.753Z,0.00
2018-06-29T03:01:32.588Z,0.00
2018-06-29T03:02:32.037Z,0.00
2018-06-29T03:04:28.921Z,0.00
2018-06-29T03:05:27.920Z,0.00
2018-06-29T03:07:21.890Z,0.00
2018-06-29T03:08:21.357Z,0.00
2018-06-29T03:10:17.824Z,0.00
2018-06-29T03:11:17.317Z,0.00
2018-06-29T03:13:13.285Z,0.00
2018-06-29T03:14:13.277Z,0.00
2018-06-29T03:16:09.222Z,0.00
2018-06-29T03:17:09.231Z,0.00
2018-06-29T03:19:05.187Z,5.63
2018-06-29T03:20:05.686Z,5.63
2018-06-29T03:22:00.179Z,5.63
2018-06-29T03:22:59.632Z,5.63
2018-06-29T03:24:57.006Z,5.63
2018-06-29T03:25:55.572Z,5.63
2018-06-29T03:27:51.523Z,5.63
2018-06-29T03:28:52.042Z,5.63
2018-06-29T03:30:47.497Z,11.25
2018-06-29T03:31:47.989Z,11.25
2018-06-29T03:33:44.439Z,11.25
2018-06-29T03:34:43.423Z,11.25
2018-06-29T03:36:39.429Z,11.25
2018-06-29T03:37:39.399Z,11.25
2018-06-29T03:39:33.358Z,16.88
2018-06-29T03:40:32.967Z,16.88
2018-06-29T03:42:29.401Z,16.88
2018-06-29T03:43:28.841Z,16.88
2018-06-29T03:45:26.309Z,16.88
2018-06-29T03:46:24.787Z,22.50
2018-06-29T03:48:20.776Z,22.50
2018-06-29T03:49:20.758Z,22.50
2018-06-29T03:51:17.716Z,22.50
2018-06-29T03:52:16.714Z,28.13
2018-06-29T03:54:11.203Z,28.13
2018-06-29T03:55:11.172Z,28.13
2018-06-29T03:57:07.105Z,28.13
2018-06-29T03:58:07.106Z,33.75
2018-06-29T04:00:01.597Z,33.75
2018-06-29T04:01:02.574Z,33.75
2018-06-29T04:02:57.527Z,39.38
2018-06-29T04:03:56.045Z,39.38
2018-06-29T04:05:51.991Z,39.38
2018-06-29T04:06:52.001Z,39.38
2018-06-29T04:08:46.466Z,39.38
2018-06-29T04:09:46.430Z,45.00
2018-06-29T04:11:42.439Z,45.00
2018-06-29T04:12:42.932Z,45.00
2018-06-29T04:14:35.838Z,45.00
2018-06-29T04:15:35.823Z,50.63
2018-06-29T04:17:31.807Z,50.63
2018-06-29T04:18:32.286Z,50.63
2018-06-29T04:20:26.272Z,56.25
2018-06-29T04:21:26.248Z,56.25
2018-06-29T04:23:22.204Z,56.25
2018-06-29T04:24:22.208Z,56.25
2018-06-29T04:26:18.164Z,61.88
2018-06-29T04:27:18.177Z,61.88
2018-06-29T04:29:14.644Z,61.88
2018-06-29T04:30:14.117Z,67.50
2018-06-29T04:32:07.550Z,67.50
2018-06-29T04:33:07.549Z,67.50
2018-06-29T04:35:04.007Z,73.13
2018-06-29T04:36:03.491Z,73.13
2018-06-29T04:37:59.458Z,78.75
2018-06-29T04:39:00.434Z,78.75
2018-06-29T04:40:57.924Z,95.63
2018-06-29T04:41:57.402Z,101.25
2018-06-29T04:43:55.374Z,112.50
2018-06-29T04:44:55.356Z,118.13
2018-06-29T04:46:51.325Z,174.38
2018-06-29T04:47:52.244Z,163.13
2018-06-29T04:49:46.261Z,168.75
2018-06-29T04:50:45.768Z,219.38
2018-06-29T04:52:43.225Z,236.25
2018-06-29T04:53:41.729Z,241.88
2018-06-29T04:55:37.731Z,247.50
2018-06-29T04:56:38.195Z,253.13
2018-06-29T04:58:34.640Z,258.75
2018-06-29T04:59:33.634Z,264.38
2018-06-29T05:01:30.587Z,270.00
2018-06-29T05:02:29.613Z,270.00
2018-06-29T05:04:24.094Z,275.63
2018-06-29T05:05:24.246Z,286.88
2018-06-29T05:07:21.016Z,286.88
2018-06-29T05:08:20.050Z,292.50
2018-06-29T05:10:16.011Z,275.63
2018-06-29T05:11:16.019Z,281.25
2018-06-29T05:13:12.488Z,315.00
2018-06-29T05:14:11.948Z,309.38
2018-06-29T05:16:07.920Z,320.63
2018-06-29T05:17:07.913Z,326.25
2018-06-29T05:19:05.366Z,331.88
2018-06-29T05:20:03.855Z,337.50
2018-06-29T05:22:00.314Z,354.38
2018-06-29T05:22:59.804Z,365.63
2018-06-29T05:24:56.288Z,376.88
2018-06-29T05:25:54.286Z,388.13
2018-06-29T05:27:51.255Z,405.00
2018-06-29T05:28:50.258Z,405.00
2018-06-29T05:30:48.232Z,320.63
2018-06-29T05:31:48.207Z,298.13
2018-06-29T05:33:44.199Z,281.25
2018-06-29T05:34:44.178Z,270.00
2018-06-29T05:36:40.634Z,258.75
2018-06-29T05:37:41.129Z,253.13
2018-06-29T05:39:36.124Z,247.50
2018-06-29T05:40:36.107Z,241.88
2018-06-29T05:42:33.133Z,236.25
2018-06-29T05:43:32.582Z,230.63
2018-06-29T05:45:29.004Z,230.63
2018-06-29T05:46:28.006Z,225.00
2018-06-29T05:48:24.478Z,225.00
2018-06-29T05:49:24.981Z,225.00
2018-06-29T05:51:21.469Z,219.38
2018-06-29T05:52:19.961Z,219.38
2018-06-29T05:54:16.936Z,219.38
2018-06-29T05:55:15.940Z,213.75
2018-06-29T05:57:13.397Z,202.50
2018-06-29T05:58:11.904Z,196.88
2018-06-29T06:00:07.886Z,191.25
2018-06-29T06:01:08.879Z,191.25
2018-06-29T06:03:03.841Z,191.25
2018-06-29T06:04:04.848Z,185.63
2018-06-29T06:05:59.828Z,185.63
2018-06-29T06:06:59.830Z,185.63
2018-06-29T06:08:57.300Z,185.63
2018-06-29T06:09:55.784Z,185.63
2018-06-29T06:11:52.550Z,180.00
2018-06-29T06:12:52.551Z,180.00
2018-06-29T06:14:47.058Z,174.38
2018-06-29T06:15:47.041Z,174.38
2018-06-29T06:17:43.509Z,174.38
2018-06-29T06:18:43.014Z,174.38
2018-06-29T06:20:39.990Z,174.38
2018-06-29T06:21:38.994Z,174.38
2018-06-29T06:23:33.431Z,168.75
2018-06-29T06:24:33.456Z,168.75
2018-06-29T06:26:31.420Z,168.75
2018-06-29T06:27:29.431Z,168.75
2018-06-29T06:29:25.360Z,163.13
2018-06-29T06:30:26.883Z,163.13
2018-06-29T06:32:23.344Z,163.13
2018-06-29T06:33:21.851Z,163.13
2018-06-29T06:35:18.234Z,157.50
2018-06-29T06:36:17.299Z,157.50
2018-06-29T06:38:14.276Z,157.50
2018-06-29T06:39:13.271Z,157.50
2018-06-29T06:41:06.729Z,151.88
2018-06-29T06:42:06.749Z,151.88
2018-06-29T06:44:04.200Z,151.88
2018-06-29T06:45:02.699Z,151.88
2018-06-29T06:46:58.736Z,151.88
2018-06-29T06:47:59.171Z,151.88
2018-06-29T06:49:54.613Z,146.25
2018-06-29T06:50:55.139Z,146.25
2018-06-29T06:52:49.116Z,146.25
2018-06-29T06:53:49.090Z,146.25
2018-06-29T06:55:45.077Z,146.25
2018-06-29T06:56:46.562Z,146.25
2018-06-29T06:58:41.053Z,146.25
2018-06-29T06:59:41.009Z,146.25
2018-06-29T07:01:37.499Z,140.63
2018-06-29T07:02:36.955Z,140.63
2018-06-29T07:04:32.939Z,140.63
2018-06-29T07:05:32.929Z,140.63
2018-06-29T07:07:27.410Z,140.63
2018-06-29T07:08:28.377Z,140.63
2018-06-29T07:10:23.345Z,140.63
2018-06-29T07:11:23.889Z,140.63
2018-06-29T07:13:17.851Z,140.63
2018-06-29T07:14:17.839Z,140.63
2018-06-29T07:16:15.794Z,140.63
2018-06-29T07:17:14.830Z,140.63
2018-06-29T07:19:10.261Z,146.25
2018-06-29T07:20:09.763Z,146.25
2018-06-29T07:22:06.260Z,146.25
2018-06-29T07:23:05.704Z,146.25
2018-06-29T07:25:02.660Z,146.25
2018-06-29T07:26:01.663Z,146.25
2018-06-29T07:27:56.117Z,140.63
2018-06-29T07:28:56.124Z,146.25
2018-06-29T07:30:52.595Z,146.25
2018-06-29T07:31:53.088Z,146.25
2018-06-29T07:33:49.055Z,146.25
2018-06-29T07:34:48.047Z,146.25
2018-06-29T07:36:45.006Z,146.25
2018-06-29T07:37:44.041Z,146.25
2018-06-29T07:39:40.524Z,146.25
2018-06-29T07:40:39.989Z,146.25
2018-06-29T07:42:34.960Z,151.88
2018-06-29T07:43:34.422Z,151.88
2018-06-29T07:45:28.886Z,151.88
2018-06-29T07:46:29.386Z,151.88
2018-06-29T07:48:24.842Z,151.88
2018-06-29T07:49:26.353Z,146.25
2018-06-29T07:51:21.316Z,151.88
2018-06-29T07:52:21.344Z,151.88
2018-06-29T07:54:20.199Z,146.25
2018-06-29T07:55:19.771Z,151.88
2018-06-29T07:57:14.959Z,146.25
2018-06-29T07:58:16.013Z,151.88
2018-06-29T08:00:10.940Z,146.25
2018-06-29T08:01:10.926Z,146.25
2018-06-29T08:03:06.857Z,146.25
2018-06-29T08:04:06.860Z,146.25
2018-06-29T08:06:02.842Z,146.25
2018-06-29T08:07:02.813Z,146.25
2018-06-29T08:08:58.853Z,146.25
2018-06-29T08:09:59.777Z,146.25
2018-06-29T08:11:55.272Z,146.25
2018-06-29T08:12:54.734Z,146.25
2018-06-29T08:14:50.689Z,146.25
2018-06-29T08:15:50.678Z,146.25
2018-06-29T08:17:47.143Z,146.25
2018-06-29T08:18:46.640Z,146.25
2018-06-29T08:20:44.114Z,146.25
2018-06-29T08:21:42.604Z,146.25
2018-06-29T08:23:41.991Z,146.25
2018-06-29T08:24:39.492Z,146.25
2018-06-29T08:26:33.041Z,146.25
2018-06-29T08:27:33.552Z,146.25
2018-06-29T08:29:29.015Z,146.25
2018-06-29T08:30:30.014Z,140.63
2018-06-29T08:32:24.000Z,140.63
2018-06-29T08:33:23.458Z,140.63
2018-06-29T08:35:20.420Z,140.63
2018-06-29T08:36:19.440Z,140.63
2018-06-29T08:38:15.413Z,140.63
2018-06-29T08:39:15.403Z,140.63
2018-06-29T08:41:11.873Z,140.63
2018-06-29T08:42:11.451Z,140.63
2018-06-29T08:44:08.446Z,140.63
2018-06-29T08:45:07.417Z,140.63
2018-06-29T08:47:01.421Z,140.63
2018-06-29T08:48:00.889Z,140.63
2018-06-29T08:49:57.348Z,140.63
2018-06-29T08:50:58.355Z,140.63
2018-06-29T08:52:51.341Z,140.63
2018-06-29T08:53:51.287Z,140.63
2018-06-29T08:55:47.286Z,140.63
2018-06-29T08:56:47.263Z,140.63
2018-06-29T08:58:43.260Z,140.63
2018-06-29T09:00:59.232Z,140.63
2018-06-29T09:01:59.182Z,140.63
2018-06-29T09:03:56.087Z,140.63
2018-06-29T09:04:55.299Z,140.63
2018-06-29T09:06:51.151Z,140.63
2018-06-29T09:07:51.153Z,140.63
2018-06-29T09:09:47.625Z,140.63
2018-06-29T09:10:47.131Z,140.63
2018-06-29T09:12:43.094Z,140.63
2018-06-29T09:13:43.089Z,140.63
2018-06-29T09:15:39.040Z,140.63
2018-06-29T09:16:39.055Z,140.63
2018-06-29T09:18:35.042Z,140.63
2018-06-29T09:19:35.005Z,140.63
2018-06-29T09:21:31.495Z,140.63
2018-06-29T09:22:31.026Z,140.63
2018-06-29T09:24:27.515Z,140.63
2018-06-29T09:25:27.235Z,140.63
2018-06-29T09:27:23.172Z,140.63
2018-06-29T09:28:23.190Z,140.63
2018-06-29T09:30:21.153Z,140.63
2018-06-29T09:31:20.158Z,140.63
2018-06-29T09:33:18.121Z,140.63
2018-06-29T09:34:18.137Z,140.63
2018-06-29T09:36:14.116Z,140.63
2018-06-29T09:37:14.117Z,140.63
2018-06-29T09:39:10.068Z,135.00
2018-06-29T09:40:10.577Z,140.63
2018-06-29T09:42:06.552Z,135.00
2018-06-29T09:43:06.018Z,135.00
2018-06-29T09:45:02.004Z,140.63
2018-06-29T09:46:01.993Z,140.63
2018-06-29T09:47:57.970Z,140.63
2018-06-29T09:48:57.966Z,140.63
2018-06-29T09:50:53.937Z,140.63
2018-06-29T09:51:53.941Z,140.63
2018-06-29T09:53:49.895Z,140.63
2018-06-29T09:54:49.911Z,140.63
2018-06-29T09:56:46.371Z,140.63
2018-06-29T09:57:45.871Z,140.63
2018-06-29T09:59:41.856Z,140.63
2018-06-29T10:01:57.859Z,140.63
2018-06-29T10:02:57.778Z,135.00
2018-06-29T10:04:53.791Z,135.00
2018-06-29T10:05:53.738Z,135.00
2018-06-29T10:07:51.696Z,135.00
2018-06-29T10:08:51.713Z,135.00
2018-06-29T10:10:49.357Z,135.00
2018-06-29T10:11:47.679Z,135.00
2018-06-29T10:13:44.148Z,135.00
2018-06-29T10:14:44.648Z,135.00
2018-06-29T10:16:40.153Z,140.63
2018-06-29T10:17:39.639Z,135.00
2018-06-29T10:19:35.722Z,135.00
2018-06-29T10:20:35.606Z,135.00
2018-06-29T10:22:33.623Z,135.00
2018-06-29T10:23:33.560Z,135.00
2018-06-29T10:25:29.553Z,135.00
2018-06-29T10:26:29.533Z,135.00
2018-06-29T10:28:25.483Z,135.00
2018-06-29T10:29:25.518Z,135.00
2018-06-29T10:31:21.541Z,135.00
2018-06-29T10:32:21.542Z,135.00
2018-06-29T10:34:18.008Z,135.00
2018-06-29T10:35:18.506Z,129.38
2018-06-29T10:37:14.035Z,135.00
2018-06-29T10:38:13.555Z,129.38
2018-06-29T10:40:12.527Z,135.00
2018-06-29T10:41:11.622Z,129.38
2018-06-29T10:43:08.636Z,129.38
2018-06-29T10:45:21.616Z,129.38
2018-06-29T10:46:21.042Z,129.38
2018-06-29T10:48:18.594Z,129.38
2018-06-29T10:49:17.088Z,129.38
2018-06-29T10:51:11.542Z,129.38
2018-06-29T10:52:11.474Z,129.38
2018-06-29T10:54:06.476Z,129.38
2018-06-29T10:55:05.953Z,129.38
2018-06-29T10:57:02.513Z,129.38
2018-06-29T10:58:01.992Z,129.38
2018-06-29T10:59:58.413Z,129.38
2018-06-29T11:00:58.390Z,123.75
2018-06-29T11:02:54.870Z,129.38
2018-06-29T11:03:53.867Z,123.75
2018-06-29T11:05:50.326Z,123.75
2018-06-29T11:06:49.844Z,129.38
2018-06-29T11:08:45.827Z,123.75
2018-06-29T11:09:45.795Z,123.75
2018-06-29T11:11:41.769Z,129.38
2018-06-29T11:12:41.770Z,129.38
2018-06-29T11:14:38.267Z,129.38
2018-06-29T11:15:38.672Z,123.75
2018-06-29T11:17:32.242Z,123.75
2018-06-29T11:18:32.244Z,123.75
2018-06-29T11:20:26.712Z,123.75
2018-06-29T11:21:26.215Z,129.38
2018-06-29T11:23:20.674Z,123.75
2018-06-29T11:24:20.166Z,123.75
2018-06-29T11:26:16.628Z,123.75
2018-06-29T11:27:16.145Z,123.75
2018-06-29T11:29:14.617Z,123.75
2018-06-29T11:30:14.127Z,123.75
2018-06-29T11:32:11.114Z,123.75
2018-06-29T11:33:10.067Z,123.75
2018-06-29T11:35:07.031Z,123.75
2018-06-29T11:36:07.031Z,123.75
2018-06-29T11:38:01.988Z,123.75
2018-06-29T11:39:02.012Z,123.75
2018-06-29T11:40:56.495Z,123.75
2018-06-29T11:41:57.481Z,123.75
2018-06-29T11:43:50.976Z,123.75
2018-06-29T11:44:50.961Z,123.75
2018-06-29T11:46:46.917Z,123.75
2018-06-29T11:47:46.927Z,123.75
2018-06-29T11:49:43.028Z,123.75
2018-06-29T11:50:42.934Z,123.75
2018-06-29T11:52:38.898Z,123.75
2018-06-29T11:53:38.889Z,123.75
2018-06-29T11:55:32.376Z,123.75
2018-06-29T11:56:32.872Z,123.75
2018-06-29T11:58:29.356Z,123.75
2018-06-29T11:59:28.820Z,123.75
2018-06-29T12:01:24.773Z,123.75
2018-06-29T12:02:24.407Z,123.75
2018-06-29T12:04:20.307Z,123.75
2018-06-29T12:05:20.294Z,123.75
2018-06-29T12:07:16.293Z,123.75
2018-06-29T12:08:15.744Z,123.75
2018-06-29T12:10:12.302Z,123.75
2018-06-29T12:11:11.808Z,123.75
2018-06-29T12:13:07.278Z,123.75
2018-06-29T12:14:06.372Z,123.75
2018-06-29T12:16:00.847Z,123.75
2018-06-29T12:17:00.841Z,123.75
2018-06-29T12:18:58.298Z,123.75
2018-06-29T12:19:56.909Z,123.75
2018-06-29T12:21:52.903Z,123.75
2018-06-29T12:22:52.846Z,123.75
2018-06-29T12:24:50.326Z,123.75
2018-06-29T12:25:48.826Z,123.75
2018-06-29T12:27:44.751Z,123.75
2018-06-29T12:28:44.776Z,123.75
2018-06-29T12:30:40.761Z,123.75
2018-06-29T12:31:41.239Z,123.75
2018-06-29T12:33:36.717Z,123.75
2018-06-29T12:34:36.709Z,123.75
2018-06-29T12:36:33.696Z,123.75
2018-06-29T12:37:33.176Z,123.75
2018-06-29T12:39:29.160Z,123.75
2018-06-29T12:40:28.650Z,123.75
2018-06-29T12:42:24.650Z,123.75
2018-06-29T12:43:24.607Z,123.75
2018-06-29T12:45:20.066Z,123.75
2018-06-29T12:46:19.061Z,123.75
2018-06-29T12:48:13.036Z,123.75
2018-06-29T12:49:13.029Z,123.75
2018-06-29T12:51:09.485Z,123.75
2018-06-29T12:52:08.514Z,123.75
2018-06-29T12:54:04.995Z,123.75
2018-06-29T12:55:04.459Z,123.75
2018-06-29T12:57:00.445Z,123.75
2018-06-29T12:58:00.937Z,123.75
2018-06-29T12:59:57.900Z,118.13
2018-06-29T13:00:56.392Z,118.13
2018-06-29T13:02:52.892Z,118.13
2018-06-29T13:03:52.364Z,118.13
2018-06-29T13:05:48.350Z,118.13
2018-06-29T13:06:48.337Z,118.13
2018-06-29T13:08:44.342Z,123.75
2018-06-29T13:09:44.333Z,118.13
2018-06-29T13:11:40.314Z,118.13
2018-06-29T13:12:40.289Z,118.13
2018-06-29T13:14:36.782Z,118.13
2018-06-29T13:15:36.261Z,118.13
2018-06-29T13:17:32.259Z,118.13
2018-06-29T13:18:32.232Z,118.13
2018-06-29T13:20:28.691Z,123.75
2018-06-29T13:21:28.198Z,118.13
2018-06-29T13:23:24.406Z,118.13
2018-06-29T13:24:25.167Z,123.75
2018-06-29T13:26:21.380Z,123.75
2018-06-29T13:27:20.428Z,118.13
2018-06-29T13:29:15.889Z,118.13
2018-06-29T13:30:14.898Z,123.75
2018-06-29T13:32:11.343Z,123.75
2018-06-29T13:33:10.828Z,118.13
2018-06-29T13:35:07.297Z,118.13
2018-06-29T13:36:06.782Z,123.75
2018-06-29T13:38:02.746Z,123.75
2018-06-29T13:39:02.755Z,123.75
2018-06-29T13:40:59.253Z,123.75
2018-06-29T13:41:58.747Z,123.75
2018-06-29T13:43:56.776Z,118.13
2018-06-29T13:44:57.620Z,118.13
2018-06-29T13:46:53.172Z,118.13
2018-06-29T13:47:52.671Z,118.13
2018-06-29T13:49:48.629Z,118.13
2018-06-29T13:50:49.659Z,118.13
2018-06-29T13:52:53.043Z,118.13
2018-06-29T13:53:44.646Z,118.13
2018-06-29T13:55:40.628Z,118.13
2018-06-29T13:56:40.599Z,123.75
2018-06-29T13:58:37.071Z,123.75
2018-06-29T13:59:36.556Z,123.75
2018-06-29T14:01:32.036Z,123.75
2018-06-29T14:02:31.073Z,123.75
2018-06-29T14:04:27.034Z,118.13
2018-06-29T14:05:27.025Z,123.75
2018-06-29T14:07:22.985Z,123.75
2018-06-29T14:08:23.004Z,123.75
2018-06-29T14:10:18.973Z,118.13
2018-06-29T14:11:19.985Z,123.75
2018-06-29T14:13:14.931Z,123.75
2018-06-29T14:14:15.893Z,123.75
2018-06-29T14:16:09.925Z,118.13
2018-06-29T14:17:09.437Z,123.75
2018-06-29T14:19:05.435Z,118.13
2018-06-29T14:20:05.387Z,118.13
2018-06-29T14:22:01.330Z,118.13
2018-06-29T14:23:01.343Z,118.13
2018-06-29T14:24:57.824Z,118.13
2018-06-29T14:25:57.333Z,118.13
2018-06-29T14:27:55.309Z,118.13
2018-06-29T14:28:54.363Z,118.13
2018-06-29T14:30:50.309Z,118.13
2018-06-29T14:31:49.330Z,118.13
2018-06-29T14:33:46.286Z,118.13
2018-06-29T14:34:45.339Z,118.13
2018-06-29T14:36:41.769Z,118.13
2018-06-29T14:37:41.294Z,118.13
2018-06-29T14:39:37.280Z,118.13
2018-06-29T14:40:38.263Z,118.13
2018-06-29T14:42:33.735Z,118.13
2018-06-29T14:43:33.226Z,118.13
2018-06-29T14:45:29.204Z,118.13
2018-06-29T14:46:30.196Z,118.13
2018-06-29T14:48:26.166Z,118.13
2018-06-29T14:49:25.170Z,118.13
2018-06-29T14:51:21.643Z,118.13
2018-06-29T14:52:21.135Z,118.13
2018-06-29T14:54:22.121Z,118.13
2018-06-29T14:55:19.286Z,118.13
2018-06-29T14:57:15.256Z,112.50
2018-06-29T14:58:15.239Z,112.50
2018-06-29T15:00:13.226Z,112.50
2018-06-29T15:01:13.216Z,118.13
2018-06-29T15:03:09.179Z,112.50
2018-06-29T15:04:09.197Z,112.50
2018-06-29T15:06:05.180Z,112.50
2018-06-29T15:09:02.139Z,112.50
2018-06-29T15:10:01.155Z,112.50
2018-06-29T15:11:57.121Z,112.50
2018-06-29T15:12:57.107Z,112.50
2018-06-29T15:14:53.078Z,106.88
2018-06-29T15:15:53.690Z,106.88
2018-06-29T15:17:50.532Z,112.50
2018-06-29T15:18:49.040Z,106.88
2018-06-29T15:20:46.030Z,106.88
2018-06-29T15:21:45.127Z,106.88
2018-06-29T15:23:40.960Z,106.88
2018-06-29T15:24:41.900Z,106.88
2018-06-29T15:26:36.937Z,106.88
2018-06-29T15:27:36.941Z,106.88
2018-06-29T15:29:32.939Z,106.88
2018-06-29T15:30:32.905Z,106.88
2018-06-29T15:32:30.868Z,106.88
2018-06-29T15:33:28.875Z,101.25
2018-06-29T15:35:27.848Z,106.88
2018-06-29T15:36:27.335Z,106.88
2018-06-29T15:38:25.312Z,101.25
2018-06-29T15:39:24.795Z,106.88
2018-06-29T15:41:20.777Z,101.25
2018-06-29T15:42:20.763Z,101.25
2018-06-29T15:44:18.741Z,101.25
2018-06-29T15:45:19.773Z,101.25
2018-06-29T15:47:16.739Z,101.25
2018-06-29T15:48:16.729Z,101.25
2018-06-29T15:50:14.690Z,101.25
2018-06-29T15:51:12.694Z,101.25
2018-06-29T15:53:12.154Z,101.25
2018-06-29T15:54:11.581Z,101.25
2018-06-29T15:56:06.626Z,95.63
2018-06-29T15:57:06.612Z,95.63
2018-06-29T15:59:03.598Z,95.63
2018-06-29T16:00:02.604Z,95.63
2018-06-29T16:02:01.073Z,95.63
2018-06-29T16:03:01.072Z,95.63
2018-06-29T16:04:58.006Z,95.63
2018-06-29T16:05:56.498Z,95.63
2018-06-29T16:07:53.406Z,95.63
2018-06-29T16:08:52.471Z,95.63
2018-06-29T16:10:48.414Z,95.63
2018-06-29T16:11:48.445Z,95.63
2018-06-29T16:13:44.406Z,95.63
2018-06-29T16:14:45.406Z,95.63
2018-06-29T16:16:42.409Z,95.63
2018-06-29T16:17:43.381Z,95.63
2018-06-29T16:19:38.356Z,90.00
2018-06-29T16:20:38.360Z,95.63
2018-06-29T16:22:36.824Z,95.63
2018-06-29T16:25:32.816Z,118.13
2018-06-29T16:26:32.784Z,129.38
2018-06-29T16:28:28.105Z,146.25
2018-06-29T16:29:28.136Z,157.50
2018-06-29T16:31:24.093Z,191.25
2018-06-29T16:32:25.086Z,208.13
2018-06-29T16:34:20.081Z,247.50
2018-06-29T16:35:21.069Z,286.88
2018-06-29T16:37:16.097Z,826.88
2018-06-29T16:38:17.076Z,1091.25
2018-06-29T16:40:12.051Z,1293.75
2018-06-29T16:41:12.053Z,1316.25
2018-06-29T16:43:10.628Z,1153.13
2018-06-29T16:44:11.034Z,1125.00
2018-06-29T16:46:06.227Z,1231.88
2018-06-29T16:47:06.170Z,1288.13
2018-06-29T16:49:02.189Z,1237.50
2018-06-29T16:50:02.159Z,1192.50
2018-06-29T16:52:00.051Z,1147.50
2018-06-29T16:52:59.102Z,1192.50
2018-06-29T16:54:56.190Z,1198.13
2018-06-29T16:55:55.113Z,1175.63
2018-06-29T16:57:51.065Z,1243.13
2018-06-29T16:58:51.987Z,1164.38
2018-06-29T17:00:47.060Z,433.13
2018-06-29T17:01:47.044Z,281.25
2018-06-29T17:03:43.001Z,241.88
2018-06-29T17:05:59.516Z,112.50
2018-06-29T17:06:59.000Z,106.88
2018-06-29T17:08:55.477Z,95.63
2018-06-29T17:09:55.971Z,106.88
2018-06-29T17:11:52.927Z,112.50
2018-06-29T17:12:52.927Z,180.00
2018-06-29T17:14:48.920Z,140.63
2018-06-29T17:15:48.931Z,118.13
2018-06-29T17:17:44.913Z,123.75
2018-06-29T17:18:44.944Z,118.13
2018-06-29T17:20:42.912Z,106.88
2018-06-29T17:21:42.905Z,101.25
2018-06-29T17:23:39.405Z,95.63
2018-06-29T17:25:54.887Z,90.00
2018-06-29T17:28:10.881Z,84.38
2018-06-29T17:29:10.900Z,84.38
2018-06-29T17:31:07.826Z,78.75
2018-06-29T17:32:06.841Z,78.75
2018-06-29T17:34:03.344Z,78.75
2018-06-29T17:35:03.838Z,78.75
2018-06-29T17:36:58.802Z,78.75
2018-06-29T17:37:58.808Z,78.75
2018-06-29T17:39:57.777Z,73.13
2018-06-29T17:40:56.988Z,73.13
2018-06-29T17:42:55.949Z,73.13
2018-06-29T17:43:54.937Z,73.13
2018-06-29T17:45:50.928Z,73.13
2018-06-29T17:48:48.954Z,73.13
2018-06-29T17:49:48.953Z,73.13
2018-06-29T17:51:48.882Z,73.13
2018-06-29T17:52:47.953Z,73.13
2018-06-29T17:54:44.022Z,73.13
2018-06-29T17:55:43.071Z,67.50
2018-06-29T17:57:39.995Z,67.50
2018-06-29T17:58:39.004Z,67.50
2018-06-29T18:00:35.489Z,73.13
2018-06-29T18:01:34.986Z,112.50
2018-06-29T18:03:30.980Z,84.38
2018-06-29T18:04:30.990Z,95.63
2018-06-29T18:06:26.944Z,106.88
2018-06-29T18:08:48.900Z,95.63
2018-06-29T18:09:48.418Z,84.38
2018-06-29T18:11:43.963Z,78.75
2018-06-29T18:12:43.472Z,78.75
2018-06-29T18:14:42.369Z,73.13
2018-06-29T18:15:41.397Z,67.50
2018-06-29T18:17:40.345Z,61.88
2018-06-29T18:18:40.366Z,61.88
2018-06-29T18:20:35.481Z,61.88
2018-06-29T18:22:51.440Z,56.25
2018-06-29T18:23:51.459Z,56.25
2018-06-29T18:25:47.469Z,56.25
2018-06-29T18:26:47.925Z,56.25
2018-06-29T18:28:43.413Z,56.25
2018-06-29T18:29:43.398Z,50.63
2018-06-29T18:31:40.861Z,50.63
2018-06-29T18:32:39.380Z,50.63
2018-06-29T18:34:35.316Z,50.63
2018-06-29T18:35:35.333Z,50.63
2018-06-29T18:37:31.824Z,50.63
2018-06-29T18:38:32.789Z,50.63
2018-06-29T18:40:27.245Z,45.00
2018-06-29T18:41:27.257Z,45.00
2018-06-29T18:43:23.243Z,45.00
2018-06-29T18:44:23.240Z,45.00